createdAt,value
2018-12-02T00:01:33.825Z,9.40
2018-12-02T00:04:02.200Z,9.40
2018-12-02T00:06:30.631Z,9.40
2018-12-02T00:08:59.035Z,9.40
2018-12-02T00:11:27.482Z,9.40
2018-12-02T00:13:55.885Z,9.50
2018-12-02T00:16:24.356Z,9.50
2018-12-02T00:18:52.818Z,9.40
2018-12-02T00:21:21.281Z,9.50
2018-12-02T00:23:49.694Z,9.50
2018-12-02T00:26:18.158Z,9.50
2018-12-02T00:28:46.565Z,9.50
2018-12-02T00:31:15.047Z,9.50
2018-12-02T00:33:43.457Z,9.50
2018-12-02T00:36:11.808Z,9.50
2018-12-02T00:38:40.204Z,9.50
2018-12-02T00:41:08.581Z,9.50
2018-12-02T00:43:36.973Z,9.50
2018-12-02T00:46:05.879Z,9.40
2018-12-02T00:48:34.268Z,9.50
2018-12-02T00:51:02.648Z,9.50
2018-12-02T00:53:31.045Z,9.50
2018-12-02T00:56:00.573Z,9.50
2018-12-02T00:58:28.957Z,9.60
2018-12-02T01:00:57.356Z,9.60
2018-12-02T01:03:25.768Z,9.60
2018-12-02T01:05:54.155Z,9.60
2018-12-02T01:08:22.622Z,9.60
2018-12-02T01:10:51.028Z,9.60
2018-12-02T01:13:19.447Z,9.60
2018-12-02T01:15:47.933Z,9.60
2018-12-02T01:18:16.304Z,9.60
2018-12-02T01:20:44.766Z,9.60
2018-12-02T01:23:13.145Z,9.60
2018-12-02T01:25:41.581Z,9.60
2018-12-02T01:28:09.960Z,9.60
2018-12-02T01:30:38.351Z,9.60
2018-12-02T01:33:06.731Z,9.60
2018-12-02T01:35:35.246Z,9.70
2018-12-02T01:38:03.710Z,9.70
2018-12-02T01:40:32.117Z,9.70
2018-12-02T01:43:00.506Z,9.70
2018-12-02T01:45:28.879Z,9.70
2018-12-02T01:47:57.243Z,9.70
2018-12-02T01:50:26.061Z,9.70
2018-12-02T01:52:54.905Z,9.70
2018-12-02T01:55:23.332Z,9.70
2018-12-02T01:57:51.917Z,9.70
2018-12-02T02:00:22.643Z,9.60
2018-12-02T02:02:51.287Z,9.70
2018-12-02T02:05:20.107Z,9.70
2018-12-02T02:07:48.542Z,9.70
2018-12-02T02:10:19.524Z,9.70
2018-12-02T02:12:47.933Z,9.70
2018-12-02T02:15:17.528Z,9.70
2018-12-02T02:17:45.459Z,9.70
2018-12-02T02:20:14.299Z,9.70
2018-12-02T02:22:42.770Z,9.70
2018-12-02T02:25:11.559Z,9.70
2018-12-02T02:27:40.415Z,9.80
2018-12-02T02:30:10.701Z,9.80
2018-12-02T02:32:39.145Z,9.80
2018-12-02T02:35:07.892Z,9.80
2018-12-02T02:37:36.386Z,9.80
2018-12-02T02:40:09.561Z,9.80
2018-12-02T02:42:37.930Z,9.80
2018-12-02T02:45:06.628Z,9.90
2018-12-02T02:47:35.005Z,9.90
2018-12-02T02:50:04.485Z,9.90
2018-12-02T02:52:32.930Z,10.10
2018-12-02T02:55:01.333Z,9.90
2018-12-02T02:57:29.682Z,9.90
2018-12-02T02:59:58.102Z,9.90
2018-12-02T03:02:26.490Z,9.90
2018-12-02T03:04:54.921Z,9.90
2018-12-02T03:07:23.298Z,9.90
2018-12-02T03:09:51.702Z,9.80
2018-12-02T03:12:20.040Z,9.80
2018-12-02T03:14:48.470Z,9.90
2018-12-02T03:17:16.876Z,9.80
2018-12-02T03:19:45.624Z,9.80
2018-12-02T03:22:13.978Z,9.80
2018-12-02T03:24:42.373Z,9.80
2018-12-02T03:27:10.736Z,9.90
2018-12-02T03:29:39.140Z,9.90
2018-12-02T03:32:07.522Z,9.90
2018-12-02T03:34:35.907Z,9.90
2018-12-02T03:37:04.298Z,9.90
2018-12-02T03:39:32.710Z,9.90
2018-12-02T03:42:01.076Z,9.90
2018-12-02T03:44:29.440Z,10.00
2018-12-02T03:46:57.905Z,9.90
2018-12-02T03:49:26.309Z,10.00
2018-12-02T03:51:54.662Z,10.00
2018-12-02T03:54:23.049Z,10.00
2018-12-02T03:56:51.451Z,10.00
2018-12-02T03:59:19.836Z,10.00
2018-12-02T04:01:48.282Z,9.90
2018-12-02T04:04:16.662Z,9.90
2018-12-02T04:06:45.106Z,9.80
2018-12-02T04:09:13.532Z,9.60
2018-12-02T04:11:41.910Z,9.60
2018-12-02T04:14:10.283Z,9.50
2018-12-02T04:16:38.662Z,9.40
2018-12-02T04:19:07.033Z,9.40
2018-12-02T04:21:35.392Z,9.30
2018-12-02T04:24:04.745Z,9.30
2018-12-02T04:26:33.139Z,9.20
2018-12-02T04:29:01.530Z,9.10
2018-12-02T04:31:29.892Z,9.10
2018-12-02T04:33:58.275Z,9.00
2018-12-02T04:36:26.676Z,9.00
2018-12-02T04:38:55.015Z,9.00
2018-12-02T04:41:23.413Z,9.00
2018-12-02T04:43:51.774Z,8.90
2018-12-02T04:46:20.145Z,8.90
2018-12-02T04:48:48.617Z,8.90
2018-12-02T04:51:17.039Z,8.90
2018-12-02T04:53:45.419Z,8.90
2018-12-02T04:56:13.774Z,8.90
2018-12-02T04:58:42.228Z,8.90
2018-12-02T05:01:10.578Z,8.90
2018-12-02T05:03:39.081Z,8.90
2018-12-02T05:06:07.421Z,8.90
2018-12-02T05:08:35.826Z,8.90
2018-12-02T05:11:04.262Z,8.90
2018-12-02T05:13:32.656Z,8.90
2018-12-02T05:16:01.011Z,8.80
2018-12-02T05:18:29.401Z,8.90
2018-12-02T05:20:57.755Z,8.90
2018-12-02T05:23:26.254Z,8.90
2018-12-02T05:25:54.584Z,8.90
2018-12-02T05:28:22.977Z,8.90
2018-12-02T05:30:51.335Z,8.80
2018-12-02T05:33:19.672Z,8.80
2018-12-02T05:35:48.057Z,8.80
2018-12-02T05:38:16.412Z,8.80
2018-12-02T05:40:44.792Z,8.80
2018-12-02T05:43:13.159Z,8.80
2018-12-02T05:45:41.622Z,8.90
2018-12-02T05:48:10.053Z,8.80
2018-12-02T05:50:38.444Z,8.90
2018-12-02T05:53:06.850Z,8.90
2018-12-02T05:55:35.934Z,8.90
2018-12-02T05:58:04.447Z,8.90
2018-12-02T06:00:32.862Z,8.90
2018-12-02T06:03:01.237Z,8.90
2018-12-02T06:05:29.597Z,8.90
2018-12-02T06:07:58.023Z,8.90
2018-12-02T06:10:26.405Z,8.90
2018-12-02T06:12:54.760Z,8.90
2018-12-02T06:15:23.174Z,8.90
2018-12-02T06:17:51.559Z,8.90
2018-12-02T06:20:21.579Z,8.90
2018-12-02T06:22:50.506Z,8.90
2018-12-02T06:25:18.861Z,8.90
2018-12-02T06:27:47.301Z,8.90
2018-12-02T06:30:17.352Z,8.90
2018-12-02T06:32:46.128Z,9.00
2018-12-02T06:35:14.717Z,9.00
2018-12-02T06:37:43.213Z,9.00
2018-12-02T06:40:13.277Z,8.90
2018-12-02T06:42:41.673Z,9.00
2018-12-02T06:45:10.634Z,8.90
2018-12-02T06:47:39.158Z,8.90
2018-12-02T06:50:08.705Z,8.90
2018-12-02T06:52:37.096Z,9.00
2018-12-02T06:55:08.293Z,9.00
2018-12-02T06:57:39.369Z,9.00
2018-12-02T07:00:13.253Z,9.00
2018-12-02T07:02:44.593Z,9.00
2018-12-02T07:05:13.665Z,9.00
2018-12-02T07:07:42.092Z,9.00
2018-12-02T07:10:10.510Z,9.00
2018-12-02T07:12:38.926Z,9.00
2018-12-02T07:15:07.379Z,9.10
2018-12-02T07:17:37.832Z,9.10
2018-12-02T07:20:09.686Z,9.10
2018-12-02T07:22:38.124Z,9.10
2018-12-02T07:25:07.783Z,9.10
2018-12-02T07:27:36.201Z,9.10
2018-12-02T07:30:06.274Z,9.10
2018-12-02T07:32:35.142Z,9.10
2018-12-02T07:35:04.172Z,9.10
2018-12-02T07:37:32.661Z,9.20
2018-12-02T07:40:22.191Z,9.20
2018-12-02T07:42:52.245Z,9.20
2018-12-02T07:45:22.263Z,9.20
2018-12-02T07:47:50.620Z,9.20
2018-12-02T07:50:19.060Z,9.20
2018-12-02T07:52:47.491Z,9.20
2018-12-02T07:55:15.882Z,9.20
2018-12-02T07:57:47.189Z,9.20
2018-12-02T08:00:15.792Z,9.30
2018-12-02T08:02:44.343Z,9.30
2018-12-02T08:05:16.273Z,9.30
2018-12-02T08:07:45.394Z,9.30
2018-12-02T08:10:15.110Z,9.40
2018-12-02T08:12:43.643Z,9.40
2018-12-02T08:15:12.795Z,9.40
2018-12-02T08:17:41.287Z,9.40
2018-12-02T08:20:12.373Z,9.40
2018-12-02T08:22:40.971Z,9.40
2018-12-02T08:25:11.001Z,9.40
2018-12-02T08:27:39.353Z,9.40
2018-12-02T08:30:15.285Z,9.50
2018-12-02T08:32:43.924Z,9.50
2018-12-02T08:35:13.213Z,9.50
2018-12-02T08:37:42.169Z,9.50
2018-12-02T08:40:11.178Z,9.50
2018-12-02T08:42:39.658Z,9.50
2018-12-02T08:45:11.539Z,9.50
2018-12-02T08:47:40.145Z,9.60
2018-12-02T08:50:11.165Z,9.60
2018-12-02T08:52:40.334Z,9.60
2018-12-02T08:55:09.657Z,9.70
2018-12-02T08:57:38.147Z,9.70
2018-12-02T09:00:09.519Z,9.70
2018-12-02T09:02:37.938Z,9.70
2018-12-02T09:05:07.713Z,9.70
2018-12-02T09:07:36.130Z,9.70
2018-12-02T09:10:09.866Z,9.70
2018-12-02T09:12:38.389Z,9.70
2018-12-02T09:15:07.797Z,9.80
2018-12-02T09:17:36.245Z,9.80
2018-12-02T09:20:07.997Z,9.80
2018-12-02T09:22:36.389Z,9.80
2018-12-02T09:25:05.371Z,9.90
2018-12-02T09:27:33.792Z,9.90
2018-12-02T09:30:02.213Z,9.90
2018-12-02T09:32:30.594Z,10.00
2018-12-02T09:34:58.993Z,10.00
2018-12-02T09:37:27.435Z,10.10
2018-12-02T09:39:55.886Z,10.10
2018-12-02T09:42:24.266Z,10.10
2018-12-02T09:44:52.667Z,10.20
2018-12-02T09:47:21.262Z,10.20
2018-12-02T09:49:49.870Z,10.20
2018-12-02T09:52:18.374Z,10.30
2018-12-02T09:54:46.901Z,10.30
2018-12-02T09:57:15.554Z,10.30
2018-12-02T09:59:44.042Z,10.30
2018-12-02T10:02:12.505Z,10.40
2018-12-02T10:04:40.920Z,10.40
2018-12-02T10:07:09.511Z,10.40
2018-12-02T10:09:37.983Z,10.40
2018-12-02T10:12:06.654Z,10.40
2018-12-02T10:14:35.164Z,10.40
2018-12-02T10:17:03.631Z,10.40
2018-12-02T10:19:32.102Z,10.40
2018-12-02T10:22:00.536Z,10.40
2018-12-02T10:24:28.959Z,10.40
2018-12-02T10:26:57.442Z,10.40
2018-12-02T10:29:25.850Z,10.50
2018-12-02T10:31:54.333Z,10.50
2018-12-02T10:34:22.755Z,10.50
2018-12-02T10:36:51.169Z,10.50
2018-12-02T10:39:19.581Z,10.60
2018-12-02T10:41:48.065Z,10.50
2018-12-02T10:44:16.463Z,10.50
2018-12-02T10:46:44.856Z,10.60
2018-12-02T10:49:13.323Z,10.60
2018-12-02T10:51:41.729Z,10.60
2018-12-02T10:54:10.217Z,10.60
2018-12-02T10:56:38.653Z,10.60
2018-12-02T10:59:07.078Z,10.60
2018-12-02T11:01:37.991Z,10.70
2018-12-02T11:04:06.588Z,10.70
2018-12-02T11:06:36.325Z,10.70
2018-12-02T11:09:03.727Z,10.70
2018-12-02T11:11:32.909Z,10.80
2018-12-02T11:14:01.294Z,10.90
2018-12-02T11:16:29.762Z,11.00
2018-12-02T11:18:58.173Z,11.00
2018-12-02T11:21:26.564Z,11.10
2018-12-02T11:23:54.977Z,11.10
2018-12-02T11:26:23.452Z,11.20
2018-12-02T11:28:51.846Z,11.20
2018-12-02T11:31:20.363Z,11.30
2018-12-02T11:33:48.898Z,11.30
2018-12-02T11:36:17.417Z,11.30
2018-12-02T11:38:45.851Z,11.30
2018-12-02T11:41:14.221Z,11.30
2018-12-02T11:43:42.793Z,11.40
2018-12-02T11:46:11.438Z,11.40
2018-12-02T11:48:39.880Z,11.50
2018-12-02T11:51:08.253Z,11.70
2018-12-02T11:53:36.677Z,11.70
2018-12-02T11:56:05.672Z,11.80
2018-12-02T11:58:34.230Z,11.80
2018-12-02T12:01:02.697Z,11.90
2018-12-02T12:03:31.129Z,12.00
2018-12-02T12:05:59.507Z,12.10
2018-12-02T12:08:27.972Z,12.20
2018-12-02T12:10:56.365Z,12.20
2018-12-02T12:13:24.944Z,12.20
2018-12-02T12:15:53.358Z,12.30
2018-12-02T12:18:21.781Z,12.40
2018-12-02T12:20:50.296Z,12.40
2018-12-02T12:23:19.592Z,12.40
2018-12-02T12:25:48.178Z,12.40
2018-12-02T12:28:16.621Z,12.40
2018-12-02T12:30:45.033Z,12.40
2018-12-02T12:33:13.439Z,12.40
2018-12-02T12:35:42.713Z,12.30
2018-12-02T12:38:11.138Z,12.40
2018-12-02T12:40:39.775Z,12.40
2018-12-02T12:43:10.375Z,12.40
2018-12-02T12:45:38.817Z,12.40
2018-12-02T12:48:07.250Z,12.40
2018-12-02T12:50:35.646Z,12.40
2018-12-02T12:53:04.236Z,12.50
2018-12-02T12:55:32.638Z,12.50
2018-12-02T12:58:01.140Z,12.50
2018-12-02T13:00:29.521Z,12.50
2018-12-02T13:02:57.934Z,12.60
2018-12-02T13:05:26.449Z,12.70
2018-12-02T13:07:55.139Z,12.60
2018-12-02T13:10:23.589Z,12.70
2018-12-02T13:12:52.163Z,12.70
2018-12-02T13:15:21.302Z,12.70
2018-12-02T13:17:59.114Z,12.80
2018-12-02T13:20:28.467Z,12.80
2018-12-02T13:22:56.859Z,12.80
2018-12-02T13:25:25.236Z,12.80
2018-12-02T13:27:53.657Z,12.80
2018-12-02T13:30:22.111Z,12.80
2018-12-02T13:32:51.193Z,12.80
2018-12-02T13:35:19.866Z,12.80
2018-12-02T13:37:48.302Z,12.90
2018-12-02T13:40:19.233Z,12.90
2018-12-02T13:42:49.188Z,12.90
2018-12-02T13:45:18.461Z,12.90
2018-12-02T13:47:46.872Z,12.90
2018-12-02T13:50:16.922Z,12.90
2018-12-02T13:52:45.723Z,12.90
2018-12-02T13:55:14.843Z,12.90
2018-12-02T13:57:43.388Z,12.90
2018-12-02T14:00:12.659Z,12.90
2018-12-02T14:02:41.201Z,12.90
2018-12-02T14:05:10.023Z,12.90
2018-12-02T14:07:38.431Z,13.00
2018-12-02T14:10:10.552Z,13.00
2018-12-02T14:12:39.678Z,13.00
2018-12-02T14:15:17.350Z,13.00
2018-12-02T14:17:46.393Z,13.00
2018-12-02T14:20:14.851Z,13.00
2018-12-02T14:22:43.319Z,13.00
2018-12-02T14:25:12.826Z,12.90
2018-12-02T14:27:42.159Z,12.90
2018-12-02T14:30:13.422Z,12.90
2018-12-02T14:32:41.889Z,12.90
2018-12-02T14:35:10.297Z,12.90
2018-12-02T14:37:38.784Z,13.00
2018-12-02T14:40:10.745Z,13.00
2018-12-02T14:42:39.564Z,13.00
2018-12-02T14:45:10.192Z,13.00
2018-12-02T14:47:38.668Z,13.00
2018-12-02T14:50:10.137Z,13.10
2018-12-02T14:52:38.587Z,13.00
2018-12-02T14:55:08.023Z,13.10
2018-12-02T14:57:36.488Z,13.00
2018-12-02T15:00:07.537Z,13.00
2018-12-02T15:02:36.018Z,13.00
2018-12-02T15:05:04.861Z,13.00
2018-12-02T15:07:33.265Z,12.90
2018-12-02T15:10:01.686Z,12.80
2018-12-02T15:12:30.081Z,12.80
2018-12-02T15:14:58.522Z,12.70
2018-12-02T15:17:26.914Z,12.70
2018-12-02T15:19:55.370Z,12.70
2018-12-02T15:22:24.643Z,12.70
2018-12-02T15:24:53.073Z,12.70
2018-12-02T15:27:21.537Z,12.60
2018-12-02T15:29:50.033Z,12.60
2018-12-02T15:32:18.453Z,12.60
2018-12-02T15:34:46.913Z,12.60
2018-12-02T15:37:15.372Z,12.60
2018-12-02T15:39:43.842Z,12.60
2018-12-02T15:42:12.209Z,12.60
2018-12-02T15:44:40.718Z,12.50
2018-12-02T15:47:09.179Z,12.60
2018-12-02T15:49:37.740Z,12.60
2018-12-02T15:52:06.487Z,12.60
2018-12-02T15:54:34.930Z,12.60
2018-12-02T15:57:03.417Z,12.50
2018-12-02T15:59:31.825Z,12.50
2018-12-02T16:02:00.312Z,12.60
2018-12-02T16:04:28.757Z,12.60
2018-12-02T16:06:57.257Z,12.60
2018-12-02T16:09:25.636Z,12.60
2018-12-02T16:11:54.072Z,12.60
2018-12-02T16:14:22.534Z,12.60
2018-12-02T16:16:51.007Z,12.70
2018-12-02T16:19:19.426Z,12.70
2018-12-02T16:21:47.828Z,12.70
2018-12-02T16:24:16.274Z,12.70
2018-12-02T16:26:44.700Z,12.70
2018-12-02T16:29:13.163Z,12.70
2018-12-02T16:31:41.598Z,12.70
2018-12-02T16:34:10.059Z,12.70
2018-12-02T16:36:38.590Z,12.70
2018-12-02T16:39:08.389Z,12.70
2018-12-02T16:41:37.393Z,12.70
2018-12-02T16:44:06.298Z,12.70
2018-12-02T16:46:34.690Z,12.70
2018-12-02T16:49:03.153Z,12.70
2018-12-02T16:51:31.622Z,12.70
2018-12-02T16:54:00.176Z,12.70
2018-12-02T16:56:28.705Z,12.70
2018-12-02T16:59:00.550Z,12.70
2018-12-02T17:01:29.881Z,12.60
2018-12-02T17:03:59.186Z,12.70
2018-12-02T17:06:27.953Z,12.60
2018-12-02T17:08:58.695Z,12.70
2018-12-02T17:11:27.150Z,12.70
2018-12-02T17:13:58.490Z,12.70
2018-12-02T17:16:26.888Z,12.70
2018-12-02T17:18:55.337Z,12.70
2018-12-02T17:21:24.134Z,12.70
2018-12-02T17:23:52.549Z,12.80
2018-12-02T17:26:21.004Z,12.80
2018-12-02T17:28:49.469Z,12.80
2018-12-02T17:31:20.214Z,12.80
2018-12-02T17:33:48.740Z,12.80
2018-12-02T17:36:17.334Z,12.80
2018-12-02T17:38:46.332Z,12.80
2018-12-02T17:41:14.999Z,12.80
2018-12-02T17:43:43.656Z,12.90
2018-12-02T17:46:12.115Z,12.90
2018-12-02T17:48:40.598Z,12.90
2018-12-02T17:51:09.192Z,13.00
2018-12-02T17:53:38.441Z,13.00
2018-12-02T17:56:07.074Z,13.00
2018-12-02T17:58:35.485Z,13.00
2018-12-02T18:01:03.992Z,12.90
2018-12-02T18:03:33.079Z,13.00
2018-12-02T18:06:01.535Z,13.00
2018-12-02T18:08:29.987Z,13.00
2018-12-02T18:10:58.393Z,12.90
2018-12-02T18:13:27.230Z,12.90
2018-12-02T18:15:55.880Z,12.90
2018-12-02T18:18:24.429Z,12.90
2018-12-02T18:20:52.840Z,12.90
2018-12-02T18:23:21.477Z,12.90
2018-12-02T18:25:50.780Z,12.90
2018-12-02T18:28:19.325Z,13.00
2018-12-02T18:30:47.809Z,13.00
2018-12-02T18:33:16.806Z,13.00
2018-12-02T18:35:46.835Z,13.10
2018-12-02T18:38:16.358Z,13.10
2018-12-02T18:41:00.515Z,13.10
2018-12-02T18:43:29.167Z,13.10
2018-12-02T18:45:57.875Z,13.20
2018-12-02T18:48:26.573Z,13.20
2018-12-02T18:50:55.198Z,13.20
2018-12-02T18:53:24.076Z,13.20
2018-12-02T18:55:52.645Z,13.10
2018-12-02T18:58:21.186Z,13.20
2018-12-02T19:00:49.628Z,13.10
2018-12-02T19:03:19.015Z,13.10
2018-12-02T19:05:48.381Z,13.10
2018-12-02T19:08:16.869Z,13.10
2018-12-02T19:10:47.403Z,13.10
2018-12-02T19:13:15.893Z,13.10
2018-12-02T19:15:44.506Z,13.10
2018-12-02T19:18:13.109Z,13.10
2018-12-02T19:20:41.573Z,13.10
2018-12-02T19:23:13.163Z,13.20
2018-12-02T19:25:41.784Z,13.10
2018-12-02T19:28:10.663Z,13.20
2018-12-02T19:30:39.139Z,13.20
2018-12-02T19:33:08.981Z,13.10
2018-12-02T19:35:37.647Z,13.10
2018-12-02T19:38:09.424Z,13.10
2018-12-02T19:40:38.588Z,13.10
2018-12-02T19:43:07.064Z,13.10
2018-12-02T19:45:35.593Z,13.10
2018-12-02T19:48:04.072Z,13.10
2018-12-02T19:50:32.706Z,13.10
2018-12-02T19:53:01.165Z,13.10
2018-12-02T19:55:29.611Z,13.10
2018-12-02T19:57:58.156Z,13.10
2018-12-02T20:00:31.869Z,13.10
2018-12-02T20:03:00.369Z,13.10
2018-12-02T20:05:28.902Z,13.10
2018-12-02T20:07:58.530Z,13.10
2018-12-02T20:10:27.909Z,13.10
2018-12-02T20:13:00.575Z,13.10
2018-12-02T20:15:29.059Z,13.10
2018-12-02T20:17:58.336Z,13.10
2018-12-02T20:20:32.110Z,13.10
2018-12-02T20:23:00.774Z,13.10
2018-12-02T20:25:29.214Z,13.10
2018-12-02T20:27:59.421Z,13.10
2018-12-02T20:30:28.191Z,13.10
2018-12-02T20:32:56.623Z,13.10
2018-12-02T20:35:25.181Z,13.10
2018-12-02T20:37:53.899Z,13.10
2018-12-02T20:40:23.036Z,13.00
2018-12-02T20:42:51.985Z,13.00
2018-12-02T20:45:20.586Z,13.00
2018-12-02T20:47:49.074Z,13.10
2018-12-02T20:50:18.115Z,13.00
2018-12-02T20:52:47.038Z,13.00
2018-12-02T20:55:23.899Z,13.00
2018-12-02T20:57:54.150Z,13.00
2018-12-02T21:00:22.764Z,13.00
2018-12-02T21:02:53.314Z,12.90
2018-12-02T21:05:26.815Z,12.90
2018-12-02T21:07:55.279Z,12.80
2018-12-02T21:10:23.818Z,12.70
2018-12-02T21:12:52.361Z,12.70
2018-12-02T21:15:20.862Z,12.70
2018-12-02T21:17:49.484Z,12.70
2018-12-02T21:20:18.085Z,12.70
2018-12-02T21:22:46.594Z,12.70
2018-12-02T21:25:15.711Z,12.70
2018-12-02T21:27:44.249Z,12.70
2018-12-02T21:30:13.562Z,12.70
2018-12-02T21:32:42.014Z,12.70
2018-12-02T21:35:10.494Z,12.70
2018-12-02T21:37:39.014Z,12.60
2018-12-02T21:40:09.221Z,12.60
2018-12-02T21:42:37.719Z,12.70
2018-12-02T21:45:07.315Z,12.70
2018-12-02T21:47:35.723Z,12.70
2018-12-02T21:50:06.980Z,12.70
2018-12-02T21:52:35.431Z,12.80
2018-12-02T21:55:03.946Z,12.80
2018-12-02T21:57:32.473Z,12.70
2018-12-02T22:00:01.040Z,12.80
2018-12-02T22:02:29.493Z,12.70
2018-12-02T22:04:58.032Z,12.70
2018-12-02T22:07:26.413Z,12.80
2018-12-02T22:09:54.881Z,12.80
2018-12-02T22:12:23.290Z,12.80
2018-12-02T22:14:51.756Z,12.80
2018-12-02T22:17:20.173Z,12.80
2018-12-02T22:19:48.631Z,12.70
2018-12-02T22:22:17.019Z,12.70
2018-12-02T22:24:45.429Z,12.60
2018-12-02T22:27:13.862Z,12.60
2018-12-02T22:29:42.372Z,12.60
2018-12-02T22:32:10.801Z,12.60
2018-12-02T22:34:39.221Z,12.70
2018-12-02T22:37:07.731Z,12.80
2018-12-02T22:39:36.199Z,12.80
2018-12-02T22:42:04.725Z,12.80
2018-12-02T22:44:33.172Z,12.80
2018-12-02T22:47:01.639Z,12.90
2018-12-02T22:49:30.056Z,12.90
2018-12-02T22:51:58.469Z,12.90
2018-12-02T22:54:26.884Z,13.10
2018-12-02T22:56:55.315Z,12.90
2018-12-02T22:59:23.811Z,12.80
2018-12-02T23:01:57.546Z,12.70
2018-12-02T23:04:25.951Z,12.70
2018-12-02T23:06:54.395Z,12.70
2018-12-02T23:09:22.791Z,12.70
2018-12-02T23:11:51.186Z,12.70
2018-12-02T23:14:19.618Z,12.70
2018-12-02T23:16:53.526Z,12.70
2018-12-02T23:19:21.905Z,12.70
2018-12-02T23:21:50.488Z,12.70
2018-12-02T23:24:18.898Z,12.70
2018-12-02T23:26:47.374Z,12.60
2018-12-02T23:29:15.746Z,12.60
2018-12-02T23:31:44.145Z,12.60
2018-12-02T23:34:12.542Z,12.60
2018-12-02T23:36:40.952Z,12.60
2018-12-02T23:39:09.436Z,12.60
2018-12-02T23:41:37.945Z,12.60
2018-12-02T23:44:06.367Z,12.60
2018-12-02T23:46:34.733Z,12.60
2018-12-02T23:49:03.158Z,12.70
2018-12-02T23:51:31.504Z,12.70
2018-12-02T23:53:59.877Z,12.70
2018-12-02T23:56:28.297Z,12.60
2018-12-02T23:58:56.729Z,12.60
